createdAt,value
2022-11-24T00:01:17.970Z,17.80
2022-11-24T00:03:52.790Z,24.20
2022-11-24T00:06:19.716Z,23.83
2022-11-24T00:08:47.724Z,19.30
2022-11-24T00:11:20.341Z,20.38
2022-11-24T00:13:48.052Z,13.00
2022-11-24T00:16:29.453Z,17.30
2022-11-24T00:18:59.271Z,14.40
2022-11-24T00:21:28.149Z,16.83
2022-11-24T00:23:55.384Z,16.52
2022-11-24T00:26:29.015Z,14.07
2022-11-24T00:29:00.575Z,16.98
2022-11-24T00:31:35.676Z,14.65
2022-11-24T00:34:06.783Z,11.10
2022-11-24T00:36:35.732Z,17.38
2022-11-24T00:39:07.046Z,14.77
2022-11-24T00:41:35.050Z,14.40
2022-11-24T00:44:02.341Z,18.67
2022-11-24T00:46:29.654Z,14.90
2022-11-24T00:48:57.566Z,11.38
2022-11-24T00:51:27.949Z,18.02
2022-11-24T00:53:56.319Z,19.73
2022-11-24T00:56:24.784Z,21.70
2022-11-24T00:58:52.917Z,14.10
2022-11-24T01:01:23.670Z,18.95
2022-11-24T01:03:51.583Z,13.13
2022-11-24T01:06:21.970Z,13.85
2022-11-24T01:08:48.877Z,16.85
2022-11-24T01:11:54.132Z,15.48
2022-11-24T01:14:24.572Z,14.82
2022-11-24T01:16:51.631Z,12.70
2022-11-24T01:19:19.196Z,18.15
2022-11-24T01:21:46.809Z,20.42
2022-11-24T01:24:14.149Z,16.40
2022-11-24T01:26:41.519Z,14.70
2022-11-24T01:29:10.965Z,17.13
2022-11-24T01:31:38.106Z,17.35
2022-11-24T01:34:04.923Z,14.57
2022-11-24T01:36:31.750Z,14.88
2022-11-24T01:38:58.582Z,20.27
2022-11-24T01:41:26.142Z,19.67
2022-11-24T01:43:55.560Z,14.05
2022-11-24T01:46:34.269Z,15.98
2022-11-24T01:49:36.576Z,13.45
2022-11-24T01:52:13.207Z,13.48
2022-11-24T01:54:53.194Z,15.57
2022-11-24T01:57:33.337Z,17.23
2022-11-24T02:00:08.726Z,11.32
2022-11-24T02:02:44.267Z,14.88
2022-11-24T02:06:04.115Z,13.40
2022-11-24T02:08:33.786Z,12.32
2022-11-24T02:11:04.815Z,13.50
2022-11-24T02:13:35.445Z,13.40
2022-11-24T02:16:03.763Z,11.35
2022-11-24T02:18:30.686Z,19.98
2022-11-24T02:20:59.302Z,20.38
2022-11-24T02:23:59.251Z,14.65
2022-11-24T02:26:32.020Z,12.00
2022-11-24T02:28:59.674Z,16.63
2022-11-24T02:31:26.827Z,13.30
2022-11-24T02:33:55.138Z,14.20
2022-11-24T02:36:21.972Z,13.02
2022-11-24T02:38:48.824Z,16.20
2022-11-24T02:41:21.459Z,12.40
2022-11-24T02:44:01.235Z,8.40
2022-11-24T02:46:28.136Z,12.93
2022-11-24T02:48:55.074Z,13.40
2022-11-24T02:51:22.147Z,12.43
2022-11-24T02:53:48.970Z,11.00
2022-11-24T02:56:15.842Z,12.07
2022-11-24T02:58:42.724Z,11.50
2022-11-24T03:01:09.596Z,10.40
2022-11-24T03:03:37.011Z,12.82
2022-11-24T03:06:04.037Z,14.05
2022-11-24T03:08:30.863Z,14.38
2022-11-24T03:10:57.704Z,11.02
2022-11-24T03:13:24.586Z,11.55
2022-11-24T03:15:51.512Z,9.10
2022-11-24T03:18:18.395Z,12.25
2022-11-24T03:20:45.320Z,13.68
2022-11-24T03:23:12.241Z,10.40
2022-11-24T03:25:39.664Z,7.65
2022-11-24T03:28:06.489Z,7.85
2022-11-24T03:30:33.370Z,10.75
2022-11-24T03:33:00.193Z,11.88
2022-11-24T03:35:27.132Z,9.85
2022-11-24T03:37:54.054Z,7.75
2022-11-24T03:40:20.858Z,9.13
2022-11-24T03:42:47.702Z,9.75
2022-11-24T03:45:45.650Z,10.05
2022-11-24T03:48:02.133Z,12.02
2022-11-24T03:50:29.156Z,11.27
2022-11-24T03:52:56.060Z,8.02
2022-11-24T03:55:22.914Z,7.57
2022-11-24T03:57:49.814Z,14.95
2022-11-24T04:00:17.507Z,10.43
2022-11-24T04:02:44.389Z,16.40
2022-11-24T04:05:11.544Z,11.43
2022-11-24T04:07:38.430Z,11.80
2022-11-24T04:10:06.319Z,16.38
2022-11-24T04:12:45.154Z,10.48
2022-11-24T04:15:18.803Z,13.55
2022-11-24T04:17:47.560Z,14.40
2022-11-24T04:20:15.459Z,13.45
2022-11-24T04:22:42.974Z,10.95
2022-11-24T04:25:10.894Z,13.40
2022-11-24T04:27:38.607Z,14.88
2022-11-24T04:30:07.327Z,11.48
2022-11-24T04:32:34.103Z,9.70
2022-11-24T04:35:00.876Z,10.15
2022-11-24T04:37:28.072Z,9.73
2022-11-24T04:39:55.250Z,10.00
2022-11-24T04:42:22.068Z,10.25
2022-11-24T04:44:48.845Z,12.50
2022-11-24T04:47:20.234Z,10.05
2022-11-24T04:49:48.977Z,10.52
2022-11-24T04:52:21.511Z,13.25
2022-11-24T04:54:48.837Z,10.57
2022-11-24T04:57:18.879Z,11.05
2022-11-24T04:59:46.352Z,9.68
2022-11-24T05:02:13.351Z,11.18
2022-11-24T05:04:40.270Z,11.30
2022-11-24T05:07:07.558Z,9.93
2022-11-24T05:09:55.213Z,7.43
2022-11-24T05:12:21.261Z,10.15
2022-11-24T05:14:48.046Z,7.13
2022-11-24T05:17:14.885Z,7.03
2022-11-24T05:19:41.657Z,3.72
2022-11-24T05:22:08.539Z,3.67
2022-11-24T05:24:35.704Z,5.15
2022-11-24T05:27:02.618Z,2.75
2022-11-24T05:29:29.352Z,4.10
2022-11-24T05:31:56.122Z,1.48
2022-11-24T05:34:22.995Z,2.80
2022-11-24T05:36:52.846Z,3.70
2022-11-24T05:39:20.849Z,3.03
2022-11-24T05:41:47.877Z,1.98
2022-11-24T05:44:14.952Z,4.35
2022-11-24T05:46:41.779Z,2.00
2022-11-24T05:49:08.634Z,0.93
2022-11-24T05:51:35.462Z,1.60
2022-11-24T05:54:02.190Z,2.25
2022-11-24T05:56:28.967Z,2.05
2022-11-24T05:58:55.755Z,2.60
2022-11-24T06:01:22.591Z,2.45
2022-11-24T06:03:49.405Z,4.40
2022-11-24T06:06:16.177Z,3.38
2022-11-24T06:08:42.962Z,2.25
2022-11-24T06:11:17.493Z,2.33
2022-11-24T06:13:46.137Z,2.97
2022-11-24T06:16:13.316Z,8.57
2022-11-24T06:18:41.028Z,4.28
2022-11-24T06:21:12.048Z,4.82
2022-11-24T06:23:40.398Z,7.47
2022-11-24T06:26:07.334Z,4.28
2022-11-24T06:28:34.186Z,5.45
2022-11-24T06:31:05.737Z,2.72
2022-11-24T06:33:34.563Z,5.13
2022-11-24T06:36:04.479Z,5.03
2022-11-24T06:38:32.130Z,3.85
2022-11-24T06:41:06.231Z,6.00
2022-11-24T06:43:35.155Z,4.07
2022-11-24T06:46:03.166Z,6.35
2022-11-24T06:48:30.996Z,3.05
2022-11-24T06:51:03.872Z,3.33
2022-11-24T06:53:37.866Z,4.13
2022-11-24T06:56:15.692Z,4.47
2022-11-24T06:58:46.008Z,5.00
2022-11-24T07:01:21.669Z,6.20
2022-11-24T07:03:49.811Z,5.05
2022-11-24T07:06:18.667Z,10.20
2022-11-24T07:08:46.554Z,6.80
2022-11-24T07:11:20.455Z,5.22
2022-11-24T07:13:48.422Z,7.40
2022-11-24T07:16:22.260Z,9.23
2022-11-24T07:18:51.670Z,17.05
2022-11-24T07:21:20.287Z,10.63
2022-11-24T07:23:52.340Z,8.85
2022-11-24T07:26:20.050Z,8.55
2022-11-24T07:28:47.513Z,10.43
2022-11-24T07:31:18.918Z,9.90
2022-11-24T07:33:51.098Z,8.75
2022-11-24T07:36:18.580Z,9.02
2022-11-24T07:38:45.867Z,9.02
2022-11-24T07:41:15.880Z,8.45
2022-11-24T07:43:42.900Z,8.85
2022-11-24T07:46:13.899Z,9.93
2022-11-24T07:48:41.308Z,7.35
2022-11-24T07:51:09.603Z,10.77
2022-11-24T07:53:37.740Z,7.60
2022-11-24T07:56:06.351Z,8.73
2022-11-24T07:58:37.111Z,10.48
2022-11-24T08:01:16.479Z,10.50
2022-11-24T08:03:44.686Z,10.77
2022-11-24T08:06:37.447Z,9.77
2022-11-24T08:09:00.807Z,10.93
2022-11-24T08:11:28.234Z,10.18
2022-11-24T08:13:55.048Z,12.60
2022-11-24T08:16:22.266Z,10.13
2022-11-24T08:18:54.873Z,11.43
2022-11-24T08:21:25.640Z,8.82
2022-11-24T08:23:58.312Z,10.23
2022-11-24T08:26:26.298Z,8.82
2022-11-24T08:28:56.484Z,11.30
2022-11-24T08:31:27.203Z,10.82
2022-11-24T08:33:56.035Z,8.68
2022-11-24T08:36:22.812Z,10.70
2022-11-24T08:38:56.482Z,11.77
2022-11-24T08:41:25.282Z,10.75
2022-11-24T08:43:52.487Z,12.18
2022-11-24T08:46:19.719Z,10.02
2022-11-24T08:48:52.209Z,9.32
2022-11-24T08:51:23.653Z,8.13
2022-11-24T08:53:55.800Z,10.07
2022-11-24T08:56:22.657Z,11.07
2022-11-24T08:58:49.743Z,8.02
2022-11-24T09:01:17.909Z,11.48
2022-11-24T09:03:50.677Z,8.70
2022-11-24T09:06:24.925Z,10.70
2022-11-24T09:08:54.481Z,8.90
2022-11-24T09:11:21.758Z,8.52
2022-11-24T09:13:49.066Z,11.90
2022-11-24T09:16:20.110Z,8.38
2022-11-24T09:18:54.114Z,8.10
2022-11-24T09:21:21.753Z,12.70
2022-11-24T09:23:51.231Z,13.38
2022-11-24T09:26:22.759Z,8.45
2022-11-24T09:28:54.391Z,12.30
2022-11-24T09:31:25.372Z,10.68
2022-11-24T09:33:52.787Z,7.60
2022-11-24T09:36:21.107Z,11.52
2022-11-24T09:38:48.182Z,10.10
2022-11-24T09:41:18.007Z,9.52
2022-11-24T09:44:02.100Z,11.40
2022-11-24T09:47:21.461Z,9.15
2022-11-24T09:49:59.882Z,8.25
2022-11-24T09:53:24.919Z,11.05
2022-11-24T09:56:00.330Z,12.40
2022-11-24T09:58:51.054Z,7.20
2022-11-24T10:01:32.387Z,11.55
2022-11-24T10:04:05.578Z,9.10
2022-11-24T10:06:48.021Z,9.55
2022-11-24T10:09:45.361Z,14.57
2022-11-24T10:12:46.209Z,8.07
2022-11-24T10:15:25.719Z,9.82
2022-11-24T10:18:45.354Z,9.35
2022-11-24T10:21:27.190Z,11.70
2022-11-24T10:24:24.628Z,10.10
2022-11-24T10:27:11.154Z,12.00
2022-11-24T10:29:42.971Z,8.68
2022-11-24T10:32:31.075Z,12.77
2022-11-24T10:35:13.550Z,10.75
2022-11-24T10:38:06.843Z,11.10
2022-11-24T10:41:06.872Z,10.82
2022-11-24T10:43:33.596Z,15.98
2022-11-24T10:46:14.814Z,13.30
2022-11-24T10:48:57.473Z,10.65
2022-11-24T10:51:55.257Z,7.50
2022-11-24T10:54:23.858Z,15.88
2022-11-24T10:56:53.240Z,15.68
2022-11-24T10:59:37.607Z,16.38
2022-11-24T11:02:40.329Z,12.35
2022-11-24T11:05:32.204Z,13.45
2022-11-24T11:08:14.168Z,10.70
2022-11-24T11:10:45.280Z,16.45
2022-11-24T11:13:32.235Z,11.85
2022-11-24T11:15:59.562Z,13.65
2022-11-24T11:18:33.045Z,11.52
2022-11-24T11:21:03.295Z,13.73
2022-11-24T11:23:35.219Z,12.10
2022-11-24T11:26:37.362Z,11.18
2022-11-24T11:35:13.985Z,16.23
2022-11-24T11:37:41.466Z,17.38
2022-11-24T11:40:18.013Z,12.52
2022-11-24T11:43:19.618Z,15.43
2022-11-24T11:45:59.700Z,15.75
2022-11-24T11:48:43.171Z,18.83
2022-11-24T11:51:44.292Z,16.00
2022-11-24T11:54:50.435Z,17.13
2022-11-24T11:57:41.807Z,14.20
2022-11-24T12:00:20.091Z,18.67
2022-11-24T12:03:25.768Z,17.17
2022-11-24T12:06:24.375Z,14.00
2022-11-24T12:09:26.318Z,14.88
2022-11-24T12:12:30.759Z,15.02
2022-11-24T12:15:28.097Z,18.75
2022-11-24T12:18:48.643Z,15.13
2022-11-24T12:21:26.681Z,14.02
2022-11-24T12:24:30.998Z,14.60
2022-11-24T12:27:22.238Z,16.08
2022-11-24T12:30:15.945Z,12.70
2022-11-24T12:33:09.808Z,19.83
2022-11-24T12:35:43.597Z,16.02
2022-11-24T12:38:41.000Z,22.75
2022-11-24T12:44:29.539Z,17.33
2022-11-24T12:47:10.938Z,19.77
2022-11-24T12:49:53.740Z,14.05
2022-11-24T12:52:33.714Z,17.10
2022-11-24T12:55:02.294Z,20.52
2022-11-24T12:57:46.818Z,16.38
2022-11-24T13:00:28.674Z,17.08
2022-11-24T13:03:36.790Z,13.38
2022-11-24T13:06:23.338Z,15.05
2022-11-24T13:08:50.726Z,16.02
2022-11-24T13:11:23.528Z,13.05
2022-11-24T13:14:20.642Z,10.77
2022-11-24T13:17:28.027Z,10.43
2022-11-24T13:19:43.671Z,18.52
2022-11-24T13:22:16.428Z,19.38
2022-11-24T13:24:44.815Z,15.57
2022-11-24T13:27:15.165Z,17.20
2022-11-24T13:29:53.606Z,13.13
2022-11-24T13:32:22.929Z,14.15
2022-11-24T13:34:54.595Z,13.40
2022-11-24T13:37:34.292Z,14.48
2022-11-24T13:40:22.848Z,14.30
2022-11-24T13:43:00.386Z,16.33
2022-11-24T13:45:40.789Z,20.52
2022-11-24T13:48:20.623Z,15.05
2022-11-24T13:50:51.013Z,14.70
2022-11-24T13:53:38.837Z,18.70
2022-11-24T13:56:17.424Z,16.50
2022-11-24T13:58:50.906Z,20.85
2022-11-24T14:01:24.690Z,17.13
2022-11-24T14:04:43.183Z,14.80
2022-11-24T14:07:12.568Z,12.75
2022-11-24T14:09:49.988Z,12.77
2022-11-24T14:12:26.772Z,16.98
2022-11-24T14:14:57.146Z,13.15
2022-11-24T14:17:28.723Z,14.48
2022-11-24T14:19:58.225Z,19.48
2022-11-24T14:22:41.330Z,10.20
2022-11-24T14:25:27.582Z,16.75
2022-11-24T14:27:54.481Z,13.52
2022-11-24T14:30:23.949Z,14.27
2022-11-24T14:33:15.862Z,15.45
2022-11-24T14:35:50.961Z,16.25
2022-11-24T14:38:17.870Z,17.02
2022-11-24T14:40:54.606Z,11.65
2022-11-24T14:43:32.929Z,13.55
2022-11-24T14:46:03.199Z,16.40
2022-11-24T14:48:39.450Z,20.02
2022-11-24T14:51:48.738Z,16.73
2022-11-24T14:54:20.098Z,11.23
2022-11-24T14:57:04.126Z,11.13
2022-11-24T14:59:36.027Z,15.50
2022-11-24T15:02:23.133Z,14.07
2022-11-24T15:05:03.422Z,10.27
2022-11-24T15:07:30.971Z,19.10
2022-11-24T15:10:03.470Z,17.05
2022-11-24T15:12:40.768Z,15.40
2022-11-24T15:15:20.451Z,14.77
2022-11-24T15:17:51.093Z,13.82
2022-11-24T15:20:35.793Z,14.85
2022-11-24T15:23:23.039Z,13.30
2022-11-24T15:26:18.036Z,11.70
2022-11-24T15:28:46.887Z,19.88
2022-11-24T15:31:14.705Z,11.52
2022-11-24T15:33:42.239Z,12.82
2022-11-24T15:36:09.185Z,10.63
2022-11-24T15:38:36.013Z,11.50
2022-11-24T15:41:21.849Z,17.15
2022-11-24T15:43:48.758Z,13.98
2022-11-24T15:46:16.179Z,19.23
2022-11-24T15:48:43.035Z,13.18
2022-11-24T15:51:14.922Z,10.73
2022-11-24T15:53:54.109Z,13.98
2022-11-24T15:56:30.972Z,12.07
2022-11-24T15:58:57.890Z,17.88
2022-11-24T16:01:31.861Z,12.63
2022-11-24T16:03:59.431Z,11.50
2022-11-24T16:06:26.339Z,20.88
2022-11-24T16:08:54.419Z,12.68
2022-11-24T16:11:22.711Z,10.85
2022-11-24T16:13:53.331Z,13.07
2022-11-24T16:16:22.538Z,14.18
2022-11-24T16:18:49.422Z,12.65
2022-11-24T16:21:17.427Z,15.05
2022-11-24T16:23:44.264Z,10.25
2022-11-24T16:26:11.022Z,13.80
2022-11-24T16:28:37.885Z,15.35
2022-11-24T16:31:04.784Z,11.02
2022-11-24T16:33:31.915Z,16.63
2022-11-24T16:35:58.768Z,11.02
2022-11-24T16:38:25.846Z,10.68
2022-11-24T16:40:56.812Z,17.35
2022-11-24T16:43:26.940Z,12.43
2022-11-24T16:46:24.035Z,15.10
2022-11-24T16:48:54.876Z,15.55
2022-11-24T16:51:23.705Z,12.73
2022-11-24T16:53:59.658Z,9.73
2022-11-24T16:56:28.887Z,14.07
2022-11-24T16:58:56.431Z,16.73
2022-11-24T17:01:23.637Z,15.38
2022-11-24T17:03:50.493Z,12.52
2022-11-24T17:06:17.870Z,9.43
2022-11-24T17:08:46.886Z,12.65
2022-11-24T17:11:15.141Z,14.85
2022-11-24T17:13:43.763Z,11.45
2022-11-24T17:16:14.754Z,12.88
2022-11-24T17:18:42.217Z,18.35
2022-11-24T17:21:24.327Z,13.68
2022-11-24T17:24:00.715Z,14.82
2022-11-24T17:26:28.259Z,16.98
2022-11-24T17:28:56.268Z,14.57
2022-11-24T17:31:32.522Z,15.75
2022-11-24T17:34:01.018Z,12.85
2022-11-24T17:36:30.261Z,13.40
2022-11-24T17:38:59.978Z,11.05
2022-11-24T17:41:27.835Z,11.68
2022-11-24T17:43:56.584Z,10.45
2022-11-24T17:46:25.659Z,15.60
2022-11-24T17:48:53.049Z,16.77
2022-11-24T17:51:23.042Z,15.60
2022-11-24T17:53:52.184Z,13.35
2022-11-24T17:56:26.170Z,14.43
2022-11-24T17:58:59.766Z,13.07
2022-11-24T18:01:30.076Z,13.73
2022-11-24T18:03:57.306Z,12.68
2022-11-24T18:06:28.689Z,15.57
2022-11-24T18:08:58.481Z,18.00
2022-11-24T18:11:31.687Z,13.25
2022-11-24T18:14:02.793Z,13.38
2022-11-24T18:16:33.392Z,14.93
2022-11-24T18:19:11.605Z,8.80
2022-11-24T18:21:44.640Z,13.57
2022-11-24T18:24:13.067Z,12.40
2022-11-24T18:26:41.696Z,12.88
2022-11-24T18:29:09.975Z,15.75
2022-11-24T18:31:37.604Z,19.67
2022-11-24T18:34:06.366Z,12.02
2022-11-24T18:36:34.861Z,14.85
2022-11-24T18:39:08.086Z,13.38
2022-11-24T18:41:35.672Z,12.20
2022-11-24T18:44:03.170Z,16.42
2022-11-24T18:46:30.161Z,16.70
2022-11-24T18:48:57.017Z,9.70
2022-11-24T18:51:23.838Z,18.50
2022-11-24T18:53:58.161Z,13.30
2022-11-24T18:56:26.571Z,13.80
2022-11-24T18:58:56.040Z,14.93
2022-11-24T19:01:27.256Z,14.48
2022-11-24T19:03:57.373Z,14.10
2022-11-24T19:06:34.193Z,12.43
2022-11-24T19:09:08.259Z,13.65
2022-11-24T19:11:39.526Z,15.23
2022-11-24T19:14:11.790Z,18.67
2022-11-24T19:16:39.715Z,11.68
2022-11-24T19:19:08.009Z,15.40
2022-11-24T19:21:39.775Z,10.63
2022-11-24T19:24:10.393Z,15.85
2022-11-24T19:26:38.591Z,13.05
2022-11-24T19:29:07.283Z,13.25
2022-11-24T19:31:35.400Z,11.13
2022-11-24T19:34:03.423Z,16.17
2022-11-24T19:36:30.830Z,11.95
2022-11-24T19:38:59.447Z,14.93
2022-11-24T19:41:30.317Z,15.20
2022-11-24T19:43:58.634Z,12.50
2022-11-24T19:46:29.482Z,16.25
2022-11-24T19:49:00.819Z,13.15
2022-11-24T19:51:32.593Z,13.40
2022-11-24T19:54:00.612Z,16.70
2022-11-24T19:56:30.918Z,15.52
2022-11-24T19:58:57.993Z,12.18
2022-11-24T20:01:31.269Z,16.23
2022-11-24T20:04:05.981Z,15.18
2022-11-24T20:06:37.869Z,14.38
2022-11-24T20:09:09.341Z,13.57
2022-11-24T20:11:37.183Z,10.73
2022-11-24T20:14:05.373Z,9.25
2022-11-24T20:16:34.279Z,10.50
2022-11-24T20:19:13.230Z,22.75
2022-11-24T20:21:42.501Z,11.75
2022-11-24T20:24:16.555Z,12.95
2022-11-24T20:26:47.979Z,9.45
2022-11-24T20:29:15.214Z,11.48
2022-11-24T20:31:49.250Z,15.55
2022-11-24T20:34:16.957Z,11.80
2022-11-24T20:36:46.170Z,10.15
2022-11-24T20:39:25.273Z,11.88
2022-11-24T20:41:54.063Z,15.40
2022-11-24T20:44:22.438Z,12.75
2022-11-24T20:46:50.065Z,11.50
2022-11-24T20:49:20.244Z,14.25
2022-11-24T20:51:47.739Z,10.75
2022-11-24T20:54:17.319Z,11.75
2022-11-24T20:56:46.457Z,13.68
2022-11-24T20:59:17.064Z,8.85
2022-11-24T21:01:47.698Z,14.18
2022-11-24T21:04:24.970Z,10.27
2022-11-24T21:06:51.880Z,17.25
2022-11-24T21:09:19.188Z,11.07
2022-11-24T21:11:47.064Z,18.02
2022-11-24T21:14:14.442Z,15.77
2022-11-24T21:16:42.425Z,14.13
2022-11-24T21:19:14.273Z,12.20
2022-11-24T21:21:42.530Z,11.02
2022-11-24T21:24:15.605Z,14.88
2022-11-24T21:26:47.358Z,12.10
2022-11-24T21:29:17.776Z,12.77
2022-11-24T21:31:44.615Z,13.35
2022-11-24T21:34:16.215Z,12.05
2022-11-24T21:36:44.996Z,11.25
2022-11-24T21:39:14.410Z,11.52
2022-11-24T21:41:41.936Z,14.02
2022-11-24T21:44:11.357Z,12.20
2022-11-24T21:46:44.121Z,11.30
2022-11-24T21:49:13.228Z,12.70
2022-11-24T21:51:40.059Z,14.68
2022-11-24T21:54:07.040Z,9.65
2022-11-24T21:56:33.874Z,14.48
2022-11-24T21:59:00.632Z,15.73
2022-11-24T22:01:28.938Z,15.13
2022-11-24T22:03:56.173Z,13.82
2022-11-24T22:06:23.418Z,14.43
2022-11-24T22:08:50.300Z,13.68
2022-11-24T22:11:23.386Z,14.43
2022-11-24T22:13:51.455Z,15.27
2022-11-24T22:16:22.027Z,11.68
2022-11-24T22:18:49.055Z,16.88
2022-11-24T22:21:20.063Z,10.43
2022-11-24T22:23:50.785Z,12.93
2022-11-24T22:26:21.176Z,10.35
2022-11-24T22:28:48.318Z,13.13
2022-11-24T22:31:30.297Z,18.80
2022-11-24T22:33:59.459Z,9.73
2022-11-24T22:36:29.614Z,10.10
2022-11-24T22:38:59.843Z,10.98
2022-11-24T22:41:26.732Z,12.55
2022-11-24T22:43:54.327Z,13.98
2022-11-24T22:46:24.887Z,15.20
2022-11-24T22:48:53.903Z,19.80
2022-11-24T22:51:26.766Z,15.73
2022-11-24T22:53:56.866Z,11.57
2022-11-24T22:56:24.880Z,13.18
2022-11-24T22:58:51.996Z,11.13
2022-11-24T23:01:22.250Z,17.45
2022-11-24T23:03:50.805Z,20.67
2022-11-24T23:06:29.998Z,9.93
2022-11-24T23:08:59.697Z,11.25
2022-11-24T23:11:38.622Z,14.77
2022-11-24T23:14:14.703Z,15.15
2022-11-24T23:16:42.830Z,14.25
2022-11-24T23:19:10.304Z,11.60
2022-11-24T23:21:38.413Z,14.35
2022-11-24T23:24:06.940Z,13.00
2022-11-24T23:26:40.512Z,13.27
2022-11-24T23:29:09.409Z,11.35
2022-11-24T23:31:39.622Z,13.60
2022-11-24T23:34:06.757Z,13.30
2022-11-24T23:36:33.862Z,14.60
2022-11-24T23:39:07.149Z,13.82
2022-11-24T23:41:34.655Z,14.00
2022-11-24T23:44:01.440Z,9.52
2022-11-24T23:46:28.902Z,19.67
2022-11-24T23:48:56.714Z,13.25
2022-11-24T23:51:28.758Z,13.13
2022-11-24T23:53:56.222Z,15.55
2022-11-24T23:56:32.535Z,9.68
2022-11-24T23:59:01.679Z,12.70
